Kota Waris — S6RJ — position and weather

sailwx.info

Track history (hours):
 
Tides and Currents Weather Stations Pressure Air Temp Water Temp Dewpoint Dewpoint Depression Visibility Wind Speed Wind Dir Waves Ship Positions

Kota Waris

Last reported at 2016-May-30 16:31 UTC. Time now 2016-May-31 19:59 UTC.
Position N 01°15' E 104°03'.

Length 185 m; draft 9 m.

Type: Cargo ship. MMSI: 564482000.

Date/timePositionNaut miles runAvg speedWind from/ knotsBaromVisibWave heightAir tempDewpointWater temp
2016-May-30 16:31N 01°15' E 104°03'1111.0
2016-May-30 15:33N 01°14' E 103°52'3 2.6
2016-May-30 14:33N 01°16' E 103°50'0 0.0
2016-May-30 13:31N 01°16' E 103°50'0 0.0
2016-May-30 12:31N 01°16' E 103°50'0 0.0
2016-May-30 11:28N 01°16' E 103°50'0 0.0
2016-May-30 10:28N 01°16' E 103°50'0 0.0
2016-May-30 09:31N 01°16' E 103°50'0 0.0
2016-May-30 08:32N 01°16' E 103°50'0 0.0
2016-May-30 07:33N 01°16' E 103°50'0 0.0
2016-May-30 06:33N 01°16' E 103°50'0 0.0
2016-May-30 05:33N 01°16' E 103°50'0 0.0
2016-May-30 04:33N 01°16' E 103°50'0 0.0
2016-May-30 03:33N 01°16' E 103°50'0 0.0
2016-May-30 02:33N 01°16' E 103°50'0 0.0
2016-May-30 01:33N 01°16' E 103°50'0 0.0
2016-May-30 00:33N 01°16' E 103°50'0 0.0
2016-May-29 23:33N 01°16' E 103°50'0 0.0
2016-May-29 22:33N 01°16' E 103°50'0 0.0
2016-May-29 21:33N 01°16' E 103°50'0 0.0
2016-May-29 20:33N 01°16' E 103°50'0 0.0
2016-May-29 19:33N 01°16' E 103°50'0 0.0
2016-May-29 18:33N 01°16' E 103°50'0 0.0
2016-May-29 17:33N 01°16' E 103°50'0 0.1
2016-May-29 16:33N 01°16' E 103°50'2 2.3
2016-May-29 15:33N 01°16' E 103°53'0 0.4
2016-May-29 14:32N 01°16' E 103°53'0 0.1
2016-May-29 13:32N 01°16' E 103°53'0 0.0
2016-May-29 12:32N 01°16' E 103°53'0 0.1
2016-May-29 11:29N 01°16' E 103°53'0 0.0
2016-May-29 10:32N 01°16' E 103°53'0 0.0
2016-May-29 09:32N 01°16' E 103°53'0 0.0
2016-May-29 08:26N 01°16' E 103°53'0 0.0
2016-May-29 07:29N 01°16' E 103°53'0 0.1
2016-May-29 06:32N 01°16' E 103°53'1 0.7
2016-May-29 05:33N 01°15' E 103°53'4 4.1
2016-May-29 04:33N 01°13' E 103°50'0 0.0
2016-May-29 03:33N 01°13' E 103°50'1 1.0
2016-May-29 02:33N 01°12' E 103°51'4 4.0
2016-May-29 01:33N 01°14' E 103°54'7 7.3
2016-May-29 00:33N 01°16' E 104°02'  
Track history (hours):
 
Tides and Currents Weather Stations Pressure Air Temp Water Temp Dewpoint Dewpoint Depression Visibility Wind Speed Wind Dir Waves Ship Positions

Kota Waris

Last reported at 2016-May-30 16:31 UTC. Time now 2016-May-31 19:59 UTC.
Position N 01°15' E 104°03'.

Length 185 m; draft 9 m.

Type: Cargo ship. MMSI: 564482000.

Date/timePositionNaut miles runAvg speedWind from/ knotsBaromVisibWave heightAir tempDewpointWater temp
2016-May-30 16:31N 01°15' E 104°03'1111.0
2016-May-30 15:33N 01°14' E 103°52'3 2.6
2016-May-30 14:33N 01°16' E 103°50'0 0.0
2016-May-30 13:31N 01°16' E 103°50'0 0.0
2016-May-30 12:31N 01°16' E 103°50'0 0.0
2016-May-30 11:28N 01°16' E 103°50'0 0.0
2016-May-30 10:28N 01°16' E 103°50'0 0.0
2016-May-30 09:31N 01°16' E 103°50'0 0.0
2016-May-30 08:32N 01°16' E 103°50'0 0.0
2016-May-30 07:33N 01°16' E 103°50'0 0.0
2016-May-30 06:33N 01°16' E 103°50'0 0.0
2016-May-30 05:33N 01°16' E 103°50'0 0.0
2016-May-30 04:33N 01°16' E 103°50'0 0.0
2016-May-30 03:33N 01°16' E 103°50'0 0.0
2016-May-30 02:33N 01°16' E 103°50'0 0.0
2016-May-30 01:33N 01°16' E 103°50'0 0.0
2016-May-30 00:33N 01°16' E 103°50'0 0.0
2016-May-29 23:33N 01°16' E 103°50'0 0.0
2016-May-29 22:33N 01°16' E 103°50'0 0.0
2016-May-29 21:33N 01°16' E 103°50'0 0.0
2016-May-29 20:33N 01°16' E 103°50'0 0.0
2016-May-29 19:33N 01°16' E 103°50'0 0.0
2016-May-29 18:33N 01°16' E 103°50'0 0.0
2016-May-29 17:33N 01°16' E 103°50'0 0.1
2016-May-29 16:33N 01°16' E 103°50'2 2.3
2016-May-29 15:33N 01°16' E 103°53'0 0.4
2016-May-29 14:32N 01°16' E 103°53'0 0.1
2016-May-29 13:32N 01°16' E 103°53'0 0.0
2016-May-29 12:32N 01°16' E 103°53'0 0.1
2016-May-29 11:29N 01°16' E 103°53'0 0.0
2016-May-29 10:32N 01°16' E 103°53'0 0.0
2016-May-29 09:32N 01°16' E 103°53'0 0.0
2016-May-29 08:26N 01°16' E 103°53'0 0.0
2016-May-29 07:29N 01°16' E 103°53'0 0.1
2016-May-29 06:32N 01°16' E 103°53'1 0.7
2016-May-29 05:33N 01°15' E 103°53'4 4.1
2016-May-29 04:33N 01°13' E 103°50'0 0.0
2016-May-29 03:33N 01°13' E 103°50'1 1.0
2016-May-29 02:33N 01°12' E 103°51'4 4.0
2016-May-29 01:33N 01°14' E 103°54'7 7.3
2016-May-29 00:33N 01°16' E 104°02'  

Dump ship's entire track history